createdAt,value
2023-05-07T00:00:53.524Z,20.70
2023-05-07T00:03:22.503Z,20.70
2023-05-07T00:05:49.364Z,20.70
2023-05-07T00:08:16.240Z,20.70
2023-05-07T00:10:42.950Z,20.70
2023-05-07T00:13:09.744Z,20.70
2023-05-07T00:15:36.565Z,20.70
2023-05-07T00:18:03.329Z,20.70
2023-05-07T00:20:30.088Z,20.70
2023-05-07T00:22:56.923Z,20.70
2023-05-07T00:25:23.650Z,20.70
2023-05-07T00:27:50.404Z,20.70
2023-05-07T00:30:17.373Z,20.70
2023-05-07T00:32:46.561Z,20.70
2023-05-07T00:35:13.730Z,20.60
2023-05-07T00:37:40.583Z,20.60
2023-05-07T00:40:08.935Z,20.60
2023-05-07T00:42:35.841Z,20.60
2023-05-07T00:45:02.642Z,20.60
2023-05-07T00:47:29.534Z,20.60
2023-05-07T00:49:57.850Z,20.50
2023-05-07T00:52:26.857Z,20.60
2023-05-07T00:54:53.667Z,20.60
2023-05-07T00:57:22.201Z,20.60
2023-05-07T00:59:49.521Z,20.60
2023-05-07T01:02:16.386Z,20.60
2023-05-07T01:04:43.101Z,20.60
2023-05-07T01:07:10.911Z,20.50
2023-05-07T01:09:37.900Z,20.70
2023-05-07T01:12:05.338Z,20.70
2023-05-07T01:14:34.133Z,20.60
2023-05-07T01:17:01.217Z,20.60
2023-05-07T01:19:29.680Z,20.40
2023-05-07T01:21:59.642Z,20.50
2023-05-07T01:24:26.516Z,20.50
2023-05-07T01:26:53.323Z,20.60
2023-05-07T01:29:20.080Z,20.60
2023-05-07T01:31:47.531Z,20.60
2023-05-07T01:34:15.396Z,20.60
2023-05-07T01:36:43.982Z,20.50
2023-05-07T01:39:11.720Z,20.50
2023-05-07T01:41:38.599Z,20.40
2023-05-07T01:44:06.785Z,20.40
2023-05-07T01:46:33.922Z,20.50
2023-05-07T01:49:01.111Z,20.50
2023-05-07T01:51:28.209Z,20.40
2023-05-07T01:53:54.985Z,20.40
2023-05-07T01:56:22.057Z,20.40
2023-05-07T01:58:49.097Z,20.30
2023-05-07T02:01:16.088Z,20.30
2023-05-07T02:03:43.027Z,20.30
2023-05-07T02:06:09.980Z,20.30
2023-05-07T02:08:36.916Z,20.30
2023-05-07T02:11:03.675Z,20.30
2023-05-07T02:13:31.430Z,20.30
2023-05-07T02:15:58.505Z,20.30
2023-05-07T02:18:25.437Z,20.30
2023-05-07T02:20:52.181Z,20.30
2023-05-07T02:23:19.081Z,20.30
2023-05-07T02:25:47.023Z,20.30
2023-05-07T02:28:14.020Z,20.20
2023-05-07T02:30:41.365Z,20.20
2023-05-07T02:33:09.666Z,20.20
2023-05-07T02:35:36.695Z,20.20
2023-05-07T02:38:03.872Z,20.20
2023-05-07T02:40:30.767Z,20.20
2023-05-07T02:42:57.708Z,20.20
2023-05-07T02:45:24.504Z,20.20
2023-05-07T02:47:51.363Z,20.20
2023-05-07T02:50:18.371Z,20.20
2023-05-07T02:52:45.050Z,20.20
2023-05-07T02:55:11.796Z,20.10
2023-05-07T02:57:38.664Z,20.10
2023-05-07T03:00:15.076Z,20.20
2023-05-07T03:02:41.892Z,20.20
2023-05-07T03:05:09.264Z,20.20
2023-05-07T03:07:36.637Z,20.20
2023-05-07T03:10:04.027Z,20.20
2023-05-07T03:12:31.087Z,20.20
2023-05-07T03:14:57.975Z,20.10
2023-05-07T03:17:25.010Z,20.10
2023-05-07T03:19:51.872Z,20.10
2023-05-07T03:22:18.761Z,20.10
2023-05-07T03:24:45.771Z,20.10
2023-05-07T03:27:12.578Z,20.10
2023-05-07T03:29:39.426Z,20.20
2023-05-07T03:32:06.993Z,20.10
2023-05-07T03:34:33.828Z,20.10
2023-05-07T03:37:00.926Z,20.10
2023-05-07T03:39:27.725Z,20.00
2023-05-07T03:41:54.597Z,20.10
2023-05-07T03:44:21.584Z,20.10
2023-05-07T03:46:48.543Z,20.00
2023-05-07T03:49:15.381Z,20.00
2023-05-07T03:51:42.257Z,20.20
2023-05-07T03:54:09.362Z,20.20
2023-05-07T03:56:36.109Z,20.20
2023-05-07T03:59:02.979Z,20.10
2023-05-07T04:01:29.874Z,20.20
2023-05-07T04:03:57.119Z,20.10
2023-05-07T04:06:23.999Z,20.20
2023-05-07T04:08:50.977Z,20.20
2023-05-07T04:11:17.844Z,20.10
2023-05-07T04:13:44.566Z,20.20
2023-05-07T04:16:11.611Z,20.20
2023-05-07T04:18:38.568Z,20.20
2023-05-07T04:21:05.622Z,20.10
2023-05-07T04:23:32.508Z,20.10
2023-05-07T04:25:59.386Z,20.10
2023-05-07T04:28:26.843Z,20.20
2023-05-07T04:30:53.566Z,20.20
2023-05-07T04:33:20.878Z,20.20
2023-05-07T04:35:47.776Z,20.20
2023-05-07T04:38:14.505Z,20.20
2023-05-07T04:40:42.208Z,20.20
2023-05-07T04:43:10.113Z,20.20
2023-05-07T04:45:37.557Z,20.10
2023-05-07T04:48:04.608Z,20.00
2023-05-07T04:50:31.546Z,19.80
2023-05-07T04:52:58.568Z,19.80
2023-05-07T04:55:25.537Z,19.90
2023-05-07T04:57:53.179Z,19.60
2023-05-07T05:00:20.729Z,19.60
2023-05-07T05:02:47.566Z,19.70
2023-05-07T05:05:14.372Z,19.70
2023-05-07T05:07:41.366Z,19.70
2023-05-07T05:10:08.433Z,19.80
2023-05-07T05:12:35.312Z,19.70
2023-05-07T05:15:02.037Z,19.70
2023-05-07T05:17:34.639Z,19.80
2023-05-07T05:20:01.373Z,19.90
2023-05-07T05:22:30.881Z,19.80
2023-05-07T05:24:57.742Z,19.90
2023-05-07T05:27:24.472Z,20.00
2023-05-07T05:29:51.225Z,20.00
2023-05-07T05:32:17.887Z,20.00
2023-05-07T05:34:44.683Z,20.00
2023-05-07T05:37:11.676Z,19.90
2023-05-07T05:39:38.423Z,19.80
2023-05-07T05:42:05.160Z,19.80
2023-05-07T05:44:31.882Z,19.70
2023-05-07T05:47:00.325Z,19.70
2023-05-07T05:49:27.085Z,19.70
2023-05-07T05:51:53.879Z,19.80
2023-05-07T05:54:20.651Z,19.70
2023-05-07T05:56:47.439Z,19.80
2023-05-07T05:59:14.306Z,19.90
2023-05-07T06:01:41.105Z,19.90
2023-05-07T06:04:07.888Z,20.00
2023-05-07T06:06:34.641Z,20.00
2023-05-07T06:09:01.598Z,20.00
2023-05-07T06:11:28.421Z,20.00
2023-05-07T06:13:55.312Z,20.10
2023-05-07T06:16:22.131Z,20.10
2023-05-07T06:22:17.683Z,20.10
2023-05-07T06:24:44.461Z,20.10
2023-05-07T06:27:11.280Z,20.10
2023-05-07T06:29:38.156Z,20.10
2023-05-07T06:32:11.680Z,20.10
2023-05-07T06:34:38.685Z,20.20
2023-05-07T06:37:05.740Z,20.20
2023-05-07T06:39:32.548Z,20.20
2023-05-07T06:41:59.463Z,20.40
2023-05-07T06:44:26.224Z,20.30
2023-05-07T06:46:52.905Z,20.40
2023-05-07T06:49:19.624Z,20.30
2023-05-07T06:51:46.317Z,20.30
2023-05-07T06:54:13.030Z,20.40
2023-05-07T06:56:39.950Z,20.40
2023-05-07T06:59:07.201Z,20.40
2023-05-07T07:01:33.975Z,20.40
2023-05-07T07:04:01.622Z,20.40
2023-05-07T07:06:28.431Z,20.40
2023-05-07T07:08:55.215Z,20.50
2023-05-07T07:11:22.128Z,20.40
2023-05-07T07:13:48.818Z,20.50
2023-05-07T07:16:15.614Z,20.60
2023-05-07T07:18:42.546Z,20.60
2023-05-07T07:21:09.254Z,20.60
2023-05-07T07:23:36.131Z,20.50
2023-05-07T07:26:02.995Z,20.50
2023-05-07T07:28:29.951Z,20.50
2023-05-07T07:30:56.656Z,20.50
2023-05-07T07:33:23.464Z,20.50
2023-05-07T07:35:50.328Z,20.60
2023-05-07T07:38:17.168Z,20.60
2023-05-07T07:40:44.975Z,20.90
2023-05-07T07:43:11.706Z,20.90
2023-05-07T07:45:41.050Z,20.90
2023-05-07T07:48:08.099Z,21.10
2023-05-07T07:50:44.568Z,21.00
2023-05-07T07:53:12.391Z,20.90
2023-05-07T07:55:39.824Z,21.00
2023-05-07T07:58:06.600Z,20.90
2023-05-07T08:00:33.411Z,21.00
2023-05-07T08:03:00.390Z,21.00
2023-05-07T08:05:27.287Z,20.90
2023-05-07T08:07:54.382Z,21.00
2023-05-07T08:10:24.007Z,20.90
2023-05-07T08:12:51.360Z,21.00
2023-05-07T08:15:18.440Z,20.90
2023-05-07T08:17:45.300Z,21.00
2023-05-07T08:20:12.192Z,21.20
2023-05-07T08:22:39.172Z,21.30
2023-05-07T08:25:06.329Z,21.60
2023-05-07T08:27:33.045Z,21.60
2023-05-07T08:29:59.901Z,21.60
2023-05-07T08:32:26.749Z,21.50
2023-05-07T08:34:53.444Z,21.50
2023-05-07T08:37:20.445Z,21.50
2023-05-07T08:39:47.245Z,21.40
2023-05-07T08:42:14.205Z,21.40
2023-05-07T08:44:41.896Z,21.40
2023-05-07T08:47:08.776Z,21.30
2023-05-07T08:49:36.228Z,21.60
2023-05-07T08:52:03.086Z,21.60
2023-05-07T08:54:30.436Z,21.70
2023-05-07T08:56:57.187Z,21.70
2023-05-07T08:59:24.151Z,21.80
2023-05-07T09:01:51.164Z,21.90
2023-05-07T09:04:18.494Z,21.80
2023-05-07T09:06:45.393Z,21.90
2023-05-07T09:09:15.114Z,21.80
2023-05-07T09:11:42.384Z,21.80
2023-05-07T09:14:09.777Z,21.90
2023-05-07T09:16:37.153Z,21.90
2023-05-07T09:19:04.203Z,22.10
2023-05-07T09:21:31.157Z,22.10
2023-05-07T09:23:58.094Z,22.10
2023-05-07T09:26:25.702Z,22.20
2023-05-07T09:28:53.210Z,22.10
2023-05-07T09:31:21.650Z,22.10
2023-05-07T09:33:48.777Z,22.10
2023-05-07T09:36:16.099Z,22.10
2023-05-07T09:38:42.891Z,22.20
2023-05-07T09:41:11.050Z,22.10
2023-05-07T09:43:38.633Z,22.20
2023-05-07T09:46:09.479Z,22.20
2023-05-07T09:48:38.618Z,22.10
2023-05-07T09:51:07.732Z,22.10
2023-05-07T09:53:34.799Z,22.00
2023-05-07T09:56:04.473Z,22.00
2023-05-07T09:58:33.456Z,22.10
2023-05-07T10:01:01.918Z,22.10
2023-05-07T10:03:31.076Z,22.00
2023-05-07T10:05:59.207Z,22.00
2023-05-07T10:08:25.992Z,22.00
2023-05-07T10:10:52.774Z,22.10
2023-05-07T10:13:23.038Z,22.00
2023-05-07T10:15:50.216Z,22.00
2023-05-07T10:18:17.956Z,22.10
2023-05-07T10:20:47.287Z,22.00
2023-05-07T10:23:14.492Z,22.10
2023-05-07T10:25:42.487Z,22.30
2023-05-07T10:28:11.902Z,22.40
2023-05-07T10:30:51.092Z,22.50
2023-05-07T10:33:21.309Z,22.40
2023-05-07T10:35:48.666Z,22.20
2023-05-07T10:38:15.533Z,22.20
2023-05-07T10:40:42.468Z,22.10
2023-05-07T10:43:10.844Z,22.20
2023-05-07T10:45:37.956Z,22.70
2023-05-07T10:48:29.733Z,22.90
2023-05-07T10:51:15.941Z,23.00
2023-05-07T10:53:42.846Z,23.20
2023-05-07T10:56:25.118Z,23.30
2023-05-07T10:58:52.079Z,23.40
2023-05-07T11:01:39.251Z,23.50
2023-05-07T11:04:19.332Z,23.50
2023-05-07T11:07:09.583Z,23.60
2023-05-07T11:09:59.546Z,23.40
2023-05-07T11:12:38.851Z,23.50
2023-05-07T11:15:10.138Z,23.50
2023-05-07T11:17:57.445Z,23.40
2023-05-07T11:20:44.589Z,23.20
2023-05-07T11:23:31.870Z,22.90
2023-05-07T11:26:12.321Z,23.00
2023-05-07T11:28:40.011Z,23.30
2023-05-07T11:31:06.957Z,23.20
2023-05-07T11:33:34.084Z,22.80
2023-05-07T11:36:01.259Z,22.60
2023-05-07T11:38:28.348Z,22.60
2023-05-07T11:40:57.600Z,22.60
2023-05-07T11:43:24.365Z,22.50
2023-05-07T11:45:51.085Z,22.60
2023-05-07T11:48:17.887Z,22.80
2023-05-07T11:50:53.816Z,23.10
2023-05-07T11:53:21.302Z,23.10
2023-05-07T11:55:48.115Z,23.20
2023-05-07T11:58:21.304Z,22.90
2023-05-07T12:00:51.175Z,22.60
2023-05-07T12:03:19.131Z,22.50
2023-05-07T12:05:46.783Z,22.40
2023-05-07T12:08:19.833Z,22.60
2023-05-07T12:10:49.024Z,22.50
2023-05-07T12:13:23.340Z,22.30
2023-05-07T12:15:53.933Z,22.20
2023-05-07T12:18:21.389Z,22.20
2023-05-07T12:20:48.357Z,22.00
2023-05-07T12:23:15.782Z,22.10
2023-05-07T12:25:47.723Z,22.10
2023-05-07T12:28:16.443Z,22.00
2023-05-07T12:30:44.045Z,22.30
2023-05-07T12:33:11.229Z,22.50
2023-05-07T12:35:40.639Z,22.30
2023-05-07T12:38:10.671Z,22.10
2023-05-07T12:40:38.454Z,22.00
2023-05-07T12:43:05.241Z,22.10
2023-05-07T12:45:32.106Z,21.90
2023-05-07T12:48:02.436Z,21.80
2023-05-07T12:50:32.125Z,21.80
2023-05-07T12:52:58.943Z,21.90
2023-05-07T12:55:26.087Z,21.90
2023-05-07T12:57:53.916Z,22.20
2023-05-07T13:00:39.862Z,22.20
2023-05-07T13:03:06.894Z,22.20
2023-05-07T13:05:33.768Z,22.10
2023-05-07T13:08:00.584Z,22.10
2023-05-07T13:10:28.109Z,22.00
2023-05-07T13:12:54.909Z,22.00
2023-05-07T13:15:22.706Z,22.20
2023-05-07T13:17:49.635Z,22.40
2023-05-07T13:20:16.652Z,22.70
2023-05-07T13:22:43.400Z,22.80
2023-05-07T13:25:10.581Z,22.50
2023-05-07T13:27:38.065Z,22.30
2023-05-07T13:30:05.647Z,22.30
2023-05-07T13:32:32.757Z,22.20
2023-05-07T13:34:59.594Z,22.20
2023-05-07T13:37:26.260Z,22.40
2023-05-07T13:39:53.077Z,22.50
2023-05-07T13:42:19.827Z,22.50
2023-05-07T13:44:47.085Z,22.50
2023-05-07T13:47:14.026Z,22.60
2023-05-07T13:49:40.711Z,22.50
2023-05-07T13:52:07.386Z,22.40
2023-05-07T13:54:34.192Z,22.20
2023-05-07T13:57:01.398Z,22.10
2023-05-07T13:59:28.185Z,22.20
2023-05-07T14:01:56.032Z,22.10
2023-05-07T14:04:22.979Z,22.10
2023-05-07T14:06:49.711Z,22.30
2023-05-07T14:09:16.605Z,22.00
2023-05-07T14:11:43.400Z,22.10
2023-05-07T14:14:13.117Z,22.20
2023-05-07T14:16:40.040Z,22.30
2023-05-07T14:19:06.771Z,22.20
2023-05-07T14:21:33.594Z,22.10
2023-05-07T14:24:01.185Z,22.10
2023-05-07T14:26:28.192Z,22.10
2023-05-07T14:28:56.021Z,22.00
2023-05-07T14:31:22.936Z,22.00
2023-05-07T14:33:50.934Z,22.20
2023-05-07T14:36:18.105Z,22.20
2023-05-07T14:38:44.909Z,22.10
2023-05-07T14:41:11.638Z,22.30
2023-05-07T14:43:38.465Z,22.30
2023-05-07T14:46:05.458Z,22.10
2023-05-07T14:48:32.219Z,22.00
2023-05-07T14:50:59.041Z,22.00
2023-05-07T14:53:26.229Z,22.40
2023-05-07T14:55:52.916Z,22.70
2023-05-07T14:58:19.738Z,22.50
2023-05-07T15:00:46.634Z,22.80
2023-05-07T15:03:14.642Z,23.20
2023-05-07T15:05:42.575Z,23.60
2023-05-07T15:08:10.117Z,23.70
2023-05-07T15:10:42.123Z,23.50
2023-05-07T15:13:12.507Z,23.70
2023-05-07T15:15:41.624Z,23.70
2023-05-07T15:18:08.552Z,23.40
2023-05-07T15:20:36.350Z,22.90
2023-05-07T15:23:05.853Z,22.80
2023-05-07T15:25:34.755Z,23.10
2023-05-07T15:28:02.097Z,23.30
2023-05-07T15:30:29.586Z,23.30
2023-05-07T15:32:56.835Z,23.50
2023-05-07T15:35:24.470Z,23.50
2023-05-07T15:37:51.268Z,23.30
2023-05-07T15:40:18.210Z,23.50
2023-05-07T15:42:47.990Z,23.70
2023-05-07T15:45:14.877Z,24.00
2023-05-07T15:47:41.961Z,23.70
2023-05-07T15:50:09.137Z,23.10
2023-05-07T15:52:36.613Z,23.20
2023-05-07T15:55:04.422Z,23.20
2023-05-07T15:57:32.098Z,23.30
2023-05-07T15:59:59.116Z,23.00
2023-05-07T16:02:26.339Z,22.80
2023-05-07T16:04:53.084Z,22.60
2023-05-07T16:07:19.958Z,22.60
2023-05-07T16:09:47.710Z,22.80
2023-05-07T16:12:14.582Z,23.00
2023-05-07T16:14:41.375Z,23.30
2023-05-07T16:17:08.455Z,23.40
2023-05-07T16:19:35.307Z,23.40
2023-05-07T16:22:02.069Z,23.40
2023-05-07T16:24:28.981Z,22.90
2023-05-07T16:26:56.028Z,22.80
2023-05-07T16:29:23.303Z,22.40
2023-05-07T16:31:50.034Z,22.20
2023-05-07T16:34:16.888Z,22.20
2023-05-07T16:36:43.595Z,22.10
2023-05-07T16:39:10.589Z,22.00
2023-05-07T16:41:38.201Z,22.00
2023-05-07T16:44:04.956Z,22.00
2023-05-07T16:46:32.290Z,22.10
2023-05-07T16:48:59.187Z,22.40
2023-05-07T16:51:25.970Z,22.60
2023-05-07T16:53:52.710Z,22.30
2023-05-07T16:56:19.802Z,22.30
2023-05-07T16:58:46.541Z,22.30
2023-05-07T17:01:15.225Z,22.20
2023-05-07T17:03:42.249Z,22.10
2023-05-07T17:06:14.041Z,22.10
2023-05-07T17:08:42.890Z,22.00
2023-05-07T17:11:10.420Z,21.90
2023-05-07T17:13:37.149Z,21.90
2023-05-07T17:16:04.472Z,21.90
2023-05-07T17:18:31.912Z,21.90
2023-05-07T17:20:59.606Z,21.80
2023-05-07T17:23:26.539Z,21.80
2023-05-07T17:25:53.354Z,21.80
2023-05-07T17:28:20.124Z,21.80
2023-05-07T17:30:48.243Z,21.80
2023-05-07T17:33:21.426Z,21.80
2023-05-07T17:35:48.616Z,21.80
2023-05-07T17:38:15.668Z,21.80
2023-05-07T17:40:42.475Z,21.70
2023-05-07T17:43:09.319Z,21.80
2023-05-07T17:45:36.360Z,21.70
2023-05-07T17:48:03.635Z,21.70
2023-05-07T17:50:30.346Z,21.60
2023-05-07T17:52:57.304Z,21.60
2023-05-07T17:55:24.037Z,21.60
2023-05-07T17:57:50.785Z,21.50
2023-05-07T18:00:17.761Z,21.50
2023-05-07T18:02:44.594Z,21.60
2023-05-07T18:05:11.405Z,21.60
2023-05-07T18:07:38.184Z,21.50
2023-05-07T18:10:05.066Z,21.50
2023-05-07T18:12:31.730Z,21.60
2023-05-07T18:14:58.566Z,21.50
2023-05-07T18:17:26.563Z,21.60
2023-05-07T18:19:55.144Z,21.60
2023-05-07T18:22:22.301Z,21.60
2023-05-07T18:24:49.651Z,21.60
2023-05-07T18:27:16.458Z,21.50
2023-05-07T18:29:43.202Z,21.50
2023-05-07T18:32:10.047Z,21.60
2023-05-07T18:34:36.793Z,21.50
2023-05-07T18:37:03.715Z,21.60
2023-05-07T18:39:31.222Z,21.60
2023-05-07T18:41:58.727Z,21.60
2023-05-07T18:44:25.654Z,21.60
2023-05-07T18:46:52.386Z,21.50
2023-05-07T18:49:19.253Z,21.60
2023-05-07T18:51:46.136Z,21.60
2023-05-07T18:54:12.862Z,21.60
2023-05-07T18:56:39.538Z,21.50
2023-05-07T18:59:06.319Z,21.50
2023-05-07T19:01:33.135Z,21.50
2023-05-07T19:03:59.894Z,21.50
2023-05-07T19:06:26.819Z,21.50
2023-05-07T19:08:53.506Z,21.40
2023-05-07T19:11:20.919Z,21.40
2023-05-07T19:13:47.805Z,21.40
2023-05-07T19:16:14.655Z,21.40
2023-05-07T19:18:41.732Z,21.50
2023-05-07T19:21:08.682Z,21.40
2023-05-07T19:23:41.948Z,21.40
2023-05-07T19:26:11.902Z,21.50
2023-05-07T19:28:39.200Z,21.40
2023-05-07T19:31:07.337Z,21.30
2023-05-07T19:33:34.510Z,21.20
2023-05-07T19:36:01.379Z,21.10
2023-05-07T19:38:29.087Z,20.90
2023-05-07T19:40:57.625Z,20.80
2023-05-07T19:43:24.471Z,20.70
2023-05-07T19:45:52.719Z,20.60
2023-05-07T19:48:22.368Z,20.50
2023-05-07T19:50:50.141Z,20.50
2023-05-07T19:53:16.940Z,20.50
2023-05-07T19:55:43.743Z,20.50
2023-05-07T19:58:10.461Z,20.50
2023-05-07T20:00:37.816Z,20.60
2023-05-07T20:03:04.741Z,20.70
2023-05-07T20:05:31.490Z,20.70
2023-05-07T20:08:00.238Z,20.70
2023-05-07T20:10:27.128Z,20.70
2023-05-07T20:12:53.870Z,20.80
2023-05-07T20:15:20.622Z,20.80
2023-05-07T20:17:48.164Z,20.90
2023-05-07T20:20:15.099Z,20.90
2023-05-07T20:22:43.004Z,20.90
2023-05-07T20:25:10.636Z,20.90
2023-05-07T20:27:39.718Z,20.90
2023-05-07T20:30:07.379Z,20.90
2023-05-07T20:32:34.430Z,20.90
2023-05-07T20:35:01.310Z,20.90
2023-05-07T20:37:29.867Z,20.80
2023-05-07T20:39:56.616Z,20.80
2023-05-07T20:42:25.053Z,20.70
2023-05-07T20:44:51.796Z,20.60
2023-05-07T20:47:18.611Z,20.70
2023-05-07T20:49:52.530Z,20.80
2023-05-07T20:52:19.382Z,20.80
2023-05-07T20:54:47.442Z,20.90
2023-05-07T20:57:14.444Z,20.90
2023-05-07T20:59:41.241Z,20.90
2023-05-07T21:02:08.182Z,20.90
2023-05-07T21:04:34.969Z,21.00
2023-05-07T21:07:01.924Z,21.00
2023-05-07T21:09:28.609Z,21.10
2023-05-07T21:11:55.358Z,21.20
2023-05-07T21:14:22.157Z,21.30
2023-05-07T21:16:48.994Z,21.30
2023-05-07T21:19:15.902Z,21.20
2023-05-07T21:21:43.231Z,21.30
2023-05-07T21:24:09.919Z,21.30
2023-05-07T21:26:36.668Z,21.20
2023-05-07T21:29:03.554Z,21.20
2023-05-07T21:31:30.347Z,21.20
2023-05-07T21:33:57.461Z,21.30
2023-05-07T21:36:24.207Z,21.30
2023-05-07T21:38:51.161Z,21.20
2023-05-07T21:41:20.386Z,21.20
2023-05-07T21:43:47.171Z,21.10
2023-05-07T21:46:13.954Z,21.10
2023-05-07T21:48:40.971Z,21.10
2023-05-07T21:51:08.246Z,21.10
2023-05-07T21:53:35.151Z,21.20
2023-05-07T21:56:03.005Z,21.20
2023-05-07T21:58:31.067Z,21.30
2023-05-07T22:00:58.268Z,21.30
2023-05-07T22:03:25.113Z,21.30
2023-05-07T22:05:51.995Z,21.30
2023-05-07T22:08:18.728Z,21.20
2023-05-07T22:10:45.487Z,21.20
2023-05-07T22:13:12.366Z,21.20
2023-05-07T22:15:53.263Z,21.20
2023-05-07T22:18:23.372Z,21.20
2023-05-07T22:20:53.184Z,21.20
2023-05-07T22:23:20.008Z,21.20
2023-05-07T22:25:47.033Z,21.20
2023-05-07T22:28:13.805Z,21.20
2023-05-07T22:30:40.573Z,21.20
2023-05-07T22:33:07.452Z,21.20
2023-05-07T22:35:34.220Z,21.20
2023-05-07T22:38:01.170Z,21.20
2023-05-07T22:40:27.941Z,21.20
2023-05-07T22:42:54.668Z,21.20
2023-05-07T22:45:21.537Z,21.20
2023-05-07T22:47:48.680Z,21.20
2023-05-07T22:50:15.604Z,21.30
2023-05-07T22:52:42.409Z,21.30
2023-05-07T22:55:09.374Z,21.20
2023-05-07T22:57:36.166Z,21.20
2023-05-07T23:00:03.367Z,21.20
2023-05-07T23:02:30.322Z,21.20
2023-05-07T23:04:58.735Z,21.20
2023-05-07T23:07:25.454Z,21.20
2023-05-07T23:09:52.230Z,21.20
2023-05-07T23:12:19.031Z,21.10
2023-05-07T23:14:45.797Z,21.10
2023-05-07T23:17:12.691Z,21.10
2023-05-07T23:19:39.590Z,21.20
2023-05-07T23:22:06.400Z,21.20
2023-05-07T23:24:34.956Z,21.20
2023-05-07T23:27:05.531Z,21.30
2023-05-07T23:29:32.711Z,21.30
2023-05-07T23:31:59.770Z,21.20
2023-05-07T23:34:26.923Z,21.10
2023-05-07T23:36:54.043Z,21.20
2023-05-07T23:39:20.993Z,21.10
2023-05-07T23:41:47.754Z,21.10
2023-05-07T23:44:16.534Z,21.10
2023-05-07T23:46:44.471Z,21.10
2023-05-07T23:49:11.606Z,21.10
2023-05-07T23:51:38.353Z,21.10
2023-05-07T23:54:05.230Z,21.10
2023-05-07T23:56:32.127Z,21.20
2023-05-07T23:58:59.513Z,21.20
